Time;durP1;ratioP1;P1;durP2;ratioP2;P2;SDS_P1;SDS_P2;PMS_P1;PMS_P2;Temp;Humidity;BMP_temperature;BMP_pressure;BME280_temperature;BME280_humidity;BME280_pressure;Samples;Min_cycle;Max_cycle;Signal;HPM_P1;HPM_P2
2021/10/08 00:02:17;;;;;;;3.05;2.80;;;23.10;53.10;;;;;;5031760;28;20133;-61
2021/10/08 00:04:44;;;;;;;3.22;2.90;;;23.00;53.60;;;;;;5027504;28;20406;-60
2021/10/08 00:07:11;;;;;;;3.38;2.90;;;23.00;53.00;;;;;;5001206;28;20069;-60
2021/10/08 00:09:38;;;;;;;2.95;2.70;;;23.00;53.00;;;;;;5010714;28;20188;-60
2021/10/08 00:12:06;;;;;;;3.67;3.20;;;23.00;53.00;;;;;;5011493;28;20050;-60
2021/10/08 00:14:34;;;;;;;3.45;3.15;;;23.00;53.10;;;;;;5009502;28;20058;-59
2021/10/08 00:17:01;;;;;;;3.55;2.80;;;23.00;53.00;;;;;;4999961;28;20081;-60
2021/10/08 00:19:28;;;;;;;3.40;3.10;;;23.00;53.00;;;;;;5010943;28;20049;-60
2021/10/08 00:21:55;;;;;;;4.55;2.97;;;23.00;53.00;;;;;;5011825;28;20128;-61
2021/10/08 00:24:22;;;;;;;4.25;3.47;;;23.00;53.00;;;;;;5009209;28;20123;-61
2021/10/08 00:26:50;;;;;;;3.47;3.17;;;23.00;53.00;;;;;;4998722;28;20046;-60
2021/10/08 00:29:17;;;;;;;3.38;3.03;;;23.00;53.00;;;;;;5010377;28;20129;-58
2021/10/08 00:31:44;;;;;;;3.00;2.80;;;23.00;53.00;;;;;;5011351;28;20458;-59
2021/10/08 00:34:11;;;;;;;3.42;3.13;;;23.00;53.00;;;;;;5010766;28;20092;-58
2021/10/08 00:36:39;;;;;;;3.50;2.80;;;23.10;53.00;;;;;;4981060;28;20069;-58
2021/10/08 00:39:06;;;;;;;3.72;3.20;;;23.00;53.00;;;;;;5009816;28;20053;-61
2021/10/08 00:41:33;;;;;;;3.33;3.03;;;23.00;53.00;;;;;;5010528;28;20656;-60
2021/10/08 00:44:00;;;;;;;3.10;2.83;;;23.00;53.00;;;;;;5010555;28;20137;-61
2021/10/08 00:46:27;;;;;;;3.90;3.20;;;23.00;52.90;;;;;;4999843;28;20077;-58
2021/10/08 00:48:55;;;;;;;3.63;3.33;;;23.00;52.90;;;;;;5008441;28;20112;-61
2021/10/08 00:51:24;;;;;;;4.07;3.25;;;23.00;52.90;;;;;;5008641;28;20150;-61
2021/10/08 00:53:52;;;;;;;3.08;2.83;;;23.00;52.90;;;;;;5010563;28;20426;-59
2021/10/08 00:56:21;;;;;;;3.30;3.10;;;23.00;52.90;;;;;;4999430;28;20085;-58
2021/10/08 00:58:50;;;;;;;3.47;3.15;;;23.00;52.90;;;;;;5009152;28;20054;-60
2021/10/08 01:01:17;;;;;;;3.13;2.88;;;23.00;52.90;;;;;;5010106;28;20093;-60
2021/10/08 01:03:45;;;;;;;2.80;2.60;;;23.10;53.00;;;;;;5010642;28;20042;-60
2021/10/08 01:06:13;;;;;;;3.03;2.72;;;23.00;52.90;;;;;;4999850;28;20144;-60
2021/10/08 01:08:40;;;;;;;3.00;2.70;;;23.00;52.90;;;;;;5007668;28;20663;-61
2021/10/08 01:11:08;;;;;;;3.35;3.05;;;23.00;52.90;;;;;;5010084;28;20057;-60
2021/10/08 01:13:35;;;;;;;3.35;3.00;;;23.00;52.90;;;;;;5010301;28;20092;-60
2021/10/08 01:16:22;;;;;;;2.67;2.45;;;23.00;52.90;;;;;;5008539;28;20124;-58
2021/10/08 01:18:49;;;;;;;3.35;3.05;;;23.00;52.90;;;;;;5013108;28;20073;-60
2021/10/08 01:21:17;;;;;;;2.67;2.47;;;23.00;53.00;;;;;;5010114;28;20081;-59
2021/10/08 01:23:46;;;;;;;3.38;2.90;;;23.00;53.00;;;;;;5011499;28;20053;-60
2021/10/08 01:26:14;;;;;;;3.42;3.08;;;23.00;53.00;;;;;;5002079;28;20100;-60
2021/10/08 01:28:41;;;;;;;3.53;3.22;;;23.00;53.00;;;;;;5009703;28;20073;-60
2021/10/08 01:31:08;;;;;;;3.45;3.17;;;23.00;53.00;;;;;;5009848;28;20142;-60
2021/10/08 01:33:35;;;;;;;4.45;3.13;;;23.00;53.00;;;;;;5009895;28;20045;-61
2021/10/08 01:36:09;;;;;;;3.08;2.80;;;23.00;53.00;;;;;;5006970;28;20046;-60
2021/10/08 01:38:36;;;;;;;3.35;3.08;;;23.00;53.10;;;;;;5008688;28;20092;-60
2021/10/08 01:41:03;;;;;;;2.70;2.50;;;23.00;53.00;;;;;;5009355;28;20046;-60
2021/10/08 01:43:30;;;;;;;3.10;2.83;;;23.00;53.00;;;;;;5010161;28;20423;-60
2021/10/08 01:45:57;;;;;;;3.10;2.78;;;23.00;53.00;;;;;;5001520;28;20120;-59
2021/10/08 01:48:25;;;;;;;3.20;2.90;;;23.00;53.00;;;;;;5010247;28;20137;-60
2021/10/08 01:50:53;;;;;;;3.30;3.03;;;23.00;53.00;;;;;;5009557;28;20137;-62
2021/10/08 01:53:20;;;;;;;3.60;3.30;;;23.00;53.00;;;;;;5009231;28;20084;-60
2021/10/08 01:55:52;;;;;;;3.10;2.80;;;23.00;53.00;;;;;;5000124;28;20143;-61
2021/10/08 01:58:19;;;;;;;4.57;3.03;;;23.00;53.00;;;;;;5007822;28;20050;-60
2021/10/08 02:00:46;;;;;;;3.45;3.15;;;23.00;53.00;;;;;;5008976;28;20049;-60
2021/10/08 02:03:14;;;;;;;3.40;3.10;;;23.00;53.00;;;;;;5009344;28;20105;-61
2021/10/08 02:05:53;;;;;;;3.38;3.10;;;23.00;53.00;;;;;;5005933;28;20046;-61
2021/10/08 02:08:20;;;;;;;3.13;2.83;;;23.00;52.90;;;;;;5008929;28;20788;-60
2021/10/08 02:10:48;;;;;;;3.25;2.95;;;23.00;53.00;;;;;;5008413;28;20041;-60
2021/10/08 02:13:15;;;;;;;2.67;2.42;;;23.00;53.00;;;;;;5009706;28;20465;-60
2021/10/08 02:15:42;;;;;;;3.13;2.83;;;23.00;53.00;;;;;;5013215;28;20384;-61
2021/10/08 02:18:09;;;;;;;3.58;2.90;;;23.00;53.00;;;;;;5027803;28;20049;-60
2021/10/08 02:20:36;;;;;;;3.17;2.67;;;23.00;52.90;;;;;;5028642;28;20137;-61
2021/10/08 02:23:03;;;;;;;3.08;2.80;;;23.00;52.90;;;;;;5028839;28;20309;-61
2021/10/08 02:25:30;;;;;;;3.47;3.17;;;23.00;52.90;;;;;;5020450;28;20060;-60
2021/10/08 02:27:57;;;;;;;2.90;2.67;;;23.00;52.90;;;;;;5025871;28;20052;-61
2021/10/08 02:30:25;;;;;;;2.85;2.65;;;23.00;52.90;;;;;;5028111;28;20648;-60
2021/10/08 02:32:52;;;;;;;3.45;3.08;;;23.00;52.90;;;;;;5028801;28;20754;-60
2021/10/08 02:38:56;;;;;;;3.78;2.85;;;23.00;52.90;;;;;;5028802;28;20415;-60
2021/10/08 02:41:23;;;;;;;3.55;3.25;;;23.00;52.90;;;;;;5027697;28;20132;-60
2021/10/08 02:43:50;;;;;;;2.80;2.42;;;23.00;52.90;;;;;;5028699;28;20561;-60
2021/10/08 02:46:17;;;;;;;2.83;2.63;;;23.00;52.90;;;;;;5023424;28;20088;-61
2021/10/08 02:48:44;;;;;;;3.20;2.97;;;23.00;52.90;;;;;;5028151;28;20057;-60
2021/10/08 02:51:12;;;;;;;2.83;2.63;;;23.00;52.90;;;;;;5026594;28;20041;-60
2021/10/08 02:53:39;;;;;;;3.42;3.00;;;23.00;52.90;;;;;;5027906;28;20092;-61
2021/10/08 02:56:06;;;;;;;2.92;2.63;;;23.00;52.90;;;;;;5017740;28;20603;-58
2021/10/08 02:58:33;;;;;;;3.63;3.20;;;23.00;53.00;;;;;;5028077;28;20136;-60
2021/10/08 03:01:00;;;;;;;4.28;3.20;;;23.00;53.00;;;;;;5026708;28;20117;-60
2021/10/08 03:03:27;;;;;;;3.38;3.05;;;22.90;53.00;;;;;;5027266;28;20049;-58
2021/10/08 03:05:55;;;;;;;2.70;2.50;;;23.00;53.00;;;;;;5021552;28;20486;-61
2021/10/08 03:08:22;;;;;;;2.90;2.70;;;23.00;53.00;;;;;;5026818;28;20050;-60
2021/10/08 03:10:49;;;;;;;3.03;2.75;;;22.90;52.90;;;;;;5027928;28;20073;-60
2021/10/08 03:13:16;;;;;;;3.47;3.17;;;23.00;53.00;;;;;;5027552;28;20136;-60
2021/10/08 03:15:43;;;;;;;3.13;2.83;;;22.90;52.90;;;;;;5024672;28;20045;-61
2021/10/08 03:18:10;;;;;;;2.72;2.47;;;22.90;52.90;;;;;;5024234;28;20414;-60
2021/10/08 03:20:37;;;;;;;2.92;2.47;;;22.90;53.00;;;;;;5027852;28;20518;-61
2021/10/08 03:23:05;;;;;;;2.90;2.70;;;23.00;53.00;;;;;;5027457;28;20136;-60
2021/10/08 03:25:52;;;;;;;3.03;2.53;;;22.90;53.00;;;;;;5020952;28;20132;-61
2021/10/08 03:28:19;;;;;;;2.80;2.60;;;23.00;53.00;;;;;;5025567;28;20072;-60
2021/10/08 03:30:47;;;;;;;2.75;2.45;;;22.90;52.90;;;;;;5026066;28;20088;-61
2021/10/08 03:33:14;;;;;;;3.00;2.80;;;23.00;53.00;;;;;;5026574;28;20037;-58
2021/10/08 03:35:52;;;;;;;2.70;2.50;;;23.00;53.00;;;;;;5013997;28;20129;-60
2021/10/08 03:38:20;;;;;;;2.97;2.65;;;22.90;52.90;;;;;;4992258;28;20048;-60
2021/10/08 03:41:05;;;;;;;3.10;2.83;;;23.00;53.00;;;;;;5006761;28;20491;-60
2021/10/08 03:43:32;;;;;;;3.22;2.92;;;23.00;52.90;;;;;;5008211;28;20080;-60
2021/10/08 03:46:39;;;;;;;3.17;2.50;;;22.90;52.90;;;;;;5002503;28;20042;-58
2021/10/08 03:51:43;;;;;;;3.20;2.90;;;22.90;52.90;;;;;;5007216;28;20070;-60
2021/10/08 03:54:11;;;;;;;3.13;2.70;;;23.00;52.90;;;;;;5007739;28;20077;-61
2021/10/08 03:56:38;;;;;;;3.08;2.60;;;23.00;52.90;;;;;;5013155;28;20697;-60
2021/10/08 03:59:06;;;;;;;3.53;3.22;;;23.00;52.90;;;;;;5025908;28;20136;-60
2021/10/08 04:01:34;;;;;;;4.57;3.08;;;23.00;52.90;;;;;;5027276;28;20136;-60
2021/10/08 04:04:04;;;;;;;3.25;2.95;;;23.00;52.90;;;;;;5027655;28;20107;-58
2021/10/08 04:06:32;;;;;;;3.33;3.03;;;23.00;52.90;;;;;;5015377;28;20055;-60
2021/10/08 04:09:01;;;;;;;2.90;2.70;;;23.00;52.90;;;;;;5009491;28;20103;-60
2021/10/08 04:11:28;;;;;;;3.53;3.22;;;22.90;52.80;;;;;;5026983;28;20247;-61
2021/10/08 04:13:55;;;;;;;3.08;2.58;;;23.00;52.90;;;;;;5027096;28;20050;-60
2021/10/08 04:16:52;;;;;;;2.92;2.72;;;23.00;52.90;;;;;;5016843;28;20120;-60
2021/10/08 04:19:19;;;;;;;3.60;3.30;;;23.00;52.90;;;;;;5027176;28;20537;-59
2021/10/08 04:21:46;;;;;;;2.72;2.53;;;22.90;52.90;;;;;;5027353;28;20045;-61
2021/10/08 04:24:14;;;;;;;3.15;2.85;;;22.90;52.90;;;;;;5026856;28;20056;-61
2021/10/08 04:26:41;;;;;;;2.67;2.47;;;22.90;52.90;;;;;;5016884;28;20049;-60
2021/10/08 04:29:08;;;;;;;2.70;2.50;;;22.90;52.90;;;;;;5030481;28;20132;-60
2021/10/08 04:31:35;;;;;;;3.50;2.72;;;22.90;52.90;;;;;;5029573;28;20141;-60
2021/10/08 04:34:02;;;;;;;3.15;2.72;;;22.90;52.90;;;;;;5030164;28;20091;-60
2021/10/08 04:36:44;;;;;;;3.15;2.80;;;22.90;52.90;;;;;;5003577;28;20042;-58
2021/10/08 04:39:11;;;;;;;2.42;2.22;;;22.90;52.90;;;;;;5009417;28;20133;-60
2021/10/08 04:41:38;;;;;;;2.70;2.50;;;22.90;52.90;;;;;;5010385;28;20144;-60
2021/10/08 04:44:06;;;;;;;2.80;2.60;;;22.90;52.90;;;;;;5010825;28;20056;-60
2021/10/08 04:46:33;;;;;;;2.70;2.45;;;22.90;52.90;;;;;;4999866;28;20687;-59
2021/10/08 04:49:00;;;;;;;2.83;2.63;;;22.90;52.90;;;;;;5020580;28;20052;-60
2021/10/08 04:51:27;;;;;;;3.75;2.40;;;22.90;52.90;;;;;;5026852;28;20128;-60
2021/10/08 04:53:54;;;;;;;2.55;2.35;;;22.90;52.90;;;;;;5026005;28;20069;-60
2021/10/08 04:56:21;;;;;;;2.97;2.75;;;22.90;53.00;;;;;;5012139;28;20049;-58
2021/10/08 04:58:48;;;;;;;2.75;2.55;;;22.90;53.00;;;;;;5028692;28;20052;-61
2021/10/08 05:01:15;;;;;;;3.55;3.15;;;22.90;53.00;;;;;;5027377;28;20064;-61
2021/10/08 05:03:43;;;;;;;2.65;2.45;;;22.90;52.90;;;;;;5029290;28;20131;-61
2021/10/08 05:06:10;;;;;;;2.50;2.30;;;22.90;52.90;;;;;;5006148;28;20052;-58
2021/10/08 05:08:37;;;;;;;3.55;2.53;;;22.90;52.80;;;;;;5018732;28;20736;-60
2021/10/08 05:11:04;;;;;;;3.03;2.70;;;22.90;52.60;;;;;;5020014;28;20104;-58
2021/10/08 05:13:31;;;;;;;4.30;3.00;;;22.90;52.40;;;;;;5024664;28;20048;-58
2021/10/08 05:15:58;;;;;;;3.35;2.70;;;22.90;52.30;;;;;;5008368;28;20692;-58
2021/10/08 05:18:25;;;;;;;2.70;2.50;;;22.90;52.20;;;;;;5015977;28;20053;-61
2021/10/08 05:20:52;;;;;;;2.72;2.53;;;22.90;52.20;;;;;;5022837;28;20092;-60
2021/10/08 05:23:19;;;;;;;3.13;2.92;;;22.90;52.10;;;;;;5019237;28;20128;-61
2021/10/08 05:26:17;;;;;;;2.70;2.50;;;22.90;52.10;;;;;;5006777;28;20160;-57
2021/10/08 05:28:44;;;;;;;2.40;2.20;;;22.90;52.20;;;;;;5015152;28;20080;-58
2021/10/08 05:31:11;;;;;;;2.95;2.67;;;22.90;52.40;;;;;;5022084;28;20527;-58
2021/10/08 05:33:39;;;;;;;4.88;2.45;;;22.90;52.50;;;;;;5037948;28;20110;-60
2021/10/08 05:36:06;;;;;;;2.42;2.22;;;22.90;52.50;;;;;;5037600;28;20092;-58
2021/10/08 05:38:33;;;;;;;2.53;2.30;;;22.90;52.50;;;;;;5037442;28;20050;-57
2021/10/08 05:41:01;;;;;;;2.63;2.42;;;22.90;52.30;;;;;;5037759;28;20088;-58
2021/10/08 05:43:28;;;;;;;4.60;3.03;;;22.90;52.10;;;;;;5037508;28;20076;-57
2021/10/08 05:45:56;;;;;;;5.47;3.08;;;23.00;51.70;;;;;;5017110;28;20053;-58
2021/10/08 05:48:23;;;;;;;7.50;3.20;;;23.00;51.20;;;;;;5008648;28;20057;-58
2021/10/08 05:50:50;;;;;;;5.80;3.67;;;23.00;50.70;;;;;;5016190;28;20120;-58
2021/10/08 05:53:18;;;;;;;4.60;3.30;;;23.00;50.90;;;;;;5017968;28;20176;-58
2021/10/08 05:55:50;;;;;;;5.15;3.22;;;22.90;50.00;;;;;;5013310;28;20048;-59
2021/10/08 05:58:18;;;;;;;5.60;3.10;;;23.00;50.50;;;;;;5012595;28;20076;-58
2021/10/08 06:00:45;;;;;;;6.72;3.65;;;23.00;50.00;;;;;;5016059;28;20555;-62
2021/10/08 06:03:12;;;;;;;12.70;3.80;;;23.00;50.00;;;;;;5017020;28;20053;-59
2021/10/08 06:09:05;;;;;;;5.70;2.95;;;23.00;50.40;;;;;;5013455;28;20076;-59
2021/10/08 06:11:32;;;;;;;4.78;3.42;;;23.10;50.40;;;;;;5017784;28;20150;-59
2021/10/08 06:14:00;;;;;;;8.15;3.53;;;23.10;50.30;;;;;;5017881;28;20128;-59
2021/10/08 06:16:44;;;;;;;10.00;3.75;;;23.20;50.40;;;;;;5014918;28;20111;-59
2021/10/08 06:19:12;;;;;;;6.30;3.30;;;23.20;50.20;;;;;;5011332;28;20395;-59
2021/10/08 06:21:40;;;;;;;5.03;3.75;;;23.30;50.10;;;;;;5020286;28;20137;-58
2021/10/08 06:24:07;;;;;;;4.22;3.25;;;23.30;50.00;;;;;;5022016;28;20065;-59
2021/10/08 06:26:45;;;;;;;5.57;3.13;;;23.30;49.90;;;;;;5011870;28;20129;-58
2021/10/08 06:29:14;;;;;;;7.90;4.00;;;23.30;49.70;;;;;;5014772;28;20049;-58
2021/10/08 06:31:41;;;;;;;6.22;3.10;;;23.40;49.70;;;;;;5016556;28;20137;-58
2021/10/08 06:34:08;;;;;;;9.43;3.38;;;23.40;49.60;;;;;;5017812;28;20053;-58
2021/10/08 06:36:43;;;;;;;5.53;3.03;;;23.50;49.60;;;;;;5009364;28;20687;-58
2021/10/08 06:39:10;;;;;;;3.80;3.25;;;23.50;49.40;;;;;;5014643;28;20042;-59
2021/10/08 06:41:38;;;;;;;6.07;3.00;;;23.50;49.30;;;;;;5020393;28;20045;-59
2021/10/08 06:44:05;;;;;;;3.53;3.03;;;23.60;49.30;;;;;;5024575;28;20570;-58
2021/10/08 06:47:06;;;;;;;8.65;3.55;;;23.60;49.20;;;;;;5016803;28;20556;-58
2021/10/08 06:52:40;;;;;;;8.63;3.60;;;23.70;48.90;;;;;;5026665;28;20448;-59
2021/10/08 06:55:37;;;;;;;5.50;3.13;;;23.70;49.00;;;;;;5022281;28;20060;-59
2021/10/08 06:58:22;;;;;;;6.22;3.10;;;23.70;48.90;;;;;;5016624;28;20036;-59
2021/10/08 07:04:19;;;;;;;6.28;3.70;;;23.80;48.70;;;;;;5024183;28;20076;-59
2021/10/08 07:07:11;;;;;;;4.15;3.20;;;23.80;48.60;;;;;;5008926;28;20107;-59
2021/10/08 07:10:22;;;;;;;3.85;3.22;;;23.90;48.70;;;;;;5012134;28;20053;-59
2021/10/08 07:16:17;;;;;;;3.30;3.00;;;23.90;48.50;;;;;;5029372;28;20045;-59
2021/10/08 07:18:52;;;;;;;6.13;3.22;;;23.90;48.30;;;;;;5045440;28;20049;-59
2021/10/08 07:21:21;;;;;;;3.80;3.03;;;23.90;48.40;;;;;;5024871;28;20065;-58
2021/10/08 07:23:49;;;;;;;4.75;2.60;;;24.00;49.00;;;;;;5039500;28;20539;-59
2021/10/08 07:26:17;;;;;;;3.47;2.75;;;24.00;49.10;;;;;;5038356;28;20132;-59
2021/10/08 07:28:45;;;;;;;7.82;2.90;;;24.00;49.10;;;;;;5039602;28;20053;-59
2021/10/08 07:31:12;;;;;;;4.90;2.90;;;24.00;49.10;;;;;;5039734;28;20498;-63
2021/10/08 07:33:41;;;;;;;5.25;3.03;;;24.00;49.10;;;;;;5041315;28;20050;-59
2021/10/08 07:36:09;;;;;;;4.63;2.65;;;24.00;49.00;;;;;;5039581;28;20056;-59
2021/10/08 07:38:38;;;;;;;4.43;3.50;;;24.00;48.80;;;;;;5042401;28;20084;-59
2021/10/08 07:41:07;;;;;;;5.63;2.92;;;24.10;48.70;;;;;;5040626;28;20054;-58
2021/10/08 07:44:26;;;;;;;7.03;3.22;;;24.10;48.60;;;;;;5027818;28;20137;-58
2021/10/08 07:53:11;;;;;;;6.30;3.15;;;24.10;48.00;;;;;;5043267;23;20112;-58
2021/10/08 07:55:39;;;;;;;6.18;2.83;;;24.20;48.00;;;;;;5006838;28;20057;-57
2021/10/08 07:58:55;;;;;;;3.35;2.80;;;24.20;47.90;;;;;;5000784;28;20038;-59
2021/10/08 08:02:00;;;;;;;3.35;2.80;;;24.20;47.80;;;;;;4999093;28;20041;-61
2021/10/08 08:05:17;;;;;;;4.05;2.75;;;24.20;47.50;;;;;;4997992;28;20054;-59
2021/10/08 08:08:05;;;;;;;3.50;3.00;;;24.30;47.40;;;;;;4991333;28;20056;-62
2021/10/08 08:10:32;;;;;;;4.47;2.65;;;24.30;47.20;;;;;;4999899;28;20049;-58
2021/10/08 08:13:00;;;;;;;3.67;2.30;;;24.40;47.10;;;;;;5001502;28;20042;-60
2021/10/08 08:15:27;;;;;;;4.35;2.58;;;24.30;46.90;;;;;;5001653;28;20046;-59
2021/10/08 08:18:11;;;;;;;8.05;2.63;;;24.40;46.90;;;;;;4992647;28;20276;-59
2021/10/08 08:20:39;;;;;;;3.22;2.63;;;24.40;46.80;;;;;;4996688;28;20065;-59
2021/10/08 08:23:06;;;;;;;3.88;2.50;;;24.40;46.90;;;;;;4999433;28;20057;-59
2021/10/08 08:25:44;;;;;;;6.00;2.60;;;24.50;47.00;;;;;;5000045;28;20065;-60
2021/10/08 08:28:11;;;;;;;2.67;2.47;;;24.50;47.00;;;;;;4990871;28;20057;-62
2021/10/08 08:30:41;;;;;;;3.85;2.13;;;24.50;47.00;;;;;;4999765;28;20077;-58
2021/10/08 08:33:09;;;;;;;3.08;2.42;;;24.50;46.90;;;;;;5002046;28;20104;-60
2021/10/08 08:35:45;;;;;;;2.60;2.40;;;24.60;47.00;;;;;;4999249;28;20038;-64
2021/10/08 08:38:12;;;;;;;5.18;2.50;;;24.60;46.90;;;;;;4996845;28;20164;-60
2021/10/08 08:40:41;;;;;;;2.60;2.40;;;24.60;46.80;;;;;;5001971;28;20050;-61
2021/10/08 08:43:08;;;;;;;2.97;2.25;;;24.60;46.70;;;;;;5004526;28;20113;-63
2021/10/08 08:45:57;;;;;;;2.60;2.40;;;24.70;46.60;;;;;;4998519;28;20038;-60
2021/10/08 08:48:25;;;;;;;5.13;2.50;;;24.70;46.60;;;;;;4994465;28;20079;-60
2021/10/08 08:50:55;;;;;;;4.63;2.55;;;24.70;46.60;;;;;;5005249;28;20666;-60
2021/10/08 08:53:22;;;;;;;5.65;2.30;;;24.70;46.50;;;;;;5001591;28;20074;-61
2021/10/08 08:55:54;;;;;;;3.25;2.75;;;24.80;46.40;;;;;;4991544;28;20658;-63
2021/10/08 08:58:21;;;;;;;4.13;2.55;;;24.80;46.30;;;;;;4995142;28;20139;-64
2021/10/08 09:00:58;;;;;;;3.55;2.78;;;24.80;46.30;;;;;;5003411;28;20199;-59
2021/10/08 09:03:27;;;;;;;3.28;2.53;;;24.80;46.30;;;;;;5000190;28;20041;-60
2021/10/08 09:06:02;;;;;;;7.10;2.67;;;24.80;46.30;;;;;;4995932;28;20125;-60
2021/10/08 09:08:34;;;;;;;3.92;2.10;;;24.90;46.20;;;;;;4995971;28;20466;-59
2021/10/08 09:11:05;;;;;;;2.85;2.40;;;24.90;46.80;;;;;;5002212;28;20132;-59
2021/10/08 09:13:32;;;;;;;4.68;2.92;;;24.90;46.20;;;;;;5004654;28;20627;-59
2021/10/08 09:16:07;;;;;;;5.30;2.70;;;24.90;46.20;;;;;;4996613;28;20089;-60
2021/10/08 09:18:37;;;;;;;2.88;2.58;;;24.90;46.00;;;;;;4992579;28;20053;-60
2021/10/08 09:21:13;;;;;;;;;;;24.90;45.90;;;;;;5001993;28;20104;-59
2021/10/08 09:23:46;;;;;;;6.65;2.90;;;24.90;45.70;;;;;;5002625;28;20016;-60
2021/10/08 09:26:29;;;;;;;3.30;2.83;;;24.90;45.80;;;;;;4996471;28;20593;-60
2021/10/08 09:29:03;;;;;;;3.30;2.85;;;24.90;45.70;;;;;;4995978;28;20041;-60
2021/10/08 09:31:42;;;;;;;2.70;2.45;;;24.90;45.60;;;;;;4997182;28;20088;-63
2021/10/08 09:34:15;;;;;;;4.15;2.70;;;24.90;45.50;;;;;;4997636;28;20128;-59
2021/10/08 09:36:47;;;;;;;3.95;2.30;;;25.00;45.60;;;;;;4992777;28;20770;-60
2021/10/08 09:39:33;;;;;;;4.47;2.88;;;25.00;45.50;;;;;;4997315;28;20526;-62
2021/10/08 09:42:04;;;;;;;4.20;2.58;;;25.00;45.40;;;;;;4998108;28;20109;-59
2021/10/08 09:44:33;;;;;;;8.52;3.75;;;24.90;45.40;;;;;;4998437;28;20046;-59
2021/10/08 09:47:19;;;;;;;16.40;3.05;;;25.00;45.30;;;;;;4991578;28;20037;-60
2021/10/08 09:49:48;;;;;;;3.25;2.30;;;25.00;45.20;;;;;;4998234;28;20136;-63
2021/10/08 09:52:31;;;;;;;2.77;2.57;;;25.00;45.10;;;;;;5001015;28;20109;-61
2021/10/08 09:55:06;;;;;;;3.13;2.38;;;25.00;45.10;;;;;;5000125;28;20053;-59
2021/10/08 09:57:57;;;;;;;3.13;2.70;;;25.00;45.00;;;;;;4989745;28;20160;-60
2021/10/08 10:00:46;;;;;;;4.03;2.63;;;25.00;45.10;;;;;;5000085;28;20112;-59
2021/10/08 10:03:17;;;;;;;2.35;2.15;;;25.00;45.10;;;;;;5001694;28;20103;-59
2021/10/08 10:05:51;;;;;;;3.85;2.33;;;25.00;45.10;;;;;;4993877;28;20045;-59
2021/10/08 10:08:19;;;;;;;2.72;2.30;;;25.00;45.00;;;;;;4997307;28;20192;-60
2021/10/08 10:10:47;;;;;;;3.05;2.53;;;25.00;44.80;;;;;;5003717;28;20120;-59
2021/10/08 10:13:14;;;;;;;4.45;3.00;;;25.10;44.90;;;;;;5000921;28;20514;-60
2021/10/08 10:16:00;;;;;;;5.57;3.60;;;25.10;44.90;;;;;;4994726;28;20670;-59
2021/10/08 10:18:29;;;;;;;5.07;2.78;;;25.10;44.80;;;;;;4993538;28;20153;-59
2021/10/08 10:20:56;;;;;;;4.07;2.33;;;25.20;44.80;;;;;;5002338;28;20141;-60
2021/10/08 10:23:24;;;;;;;2.53;2.03;;;25.20;44.70;;;;;;4995876;28;20057;-60
2021/10/08 10:26:01;;;;;;;2.53;2.15;;;25.20;44.60;;;;;;4992516;28;20054;-60
2021/10/08 10:28:29;;;;;;;7.47;2.63;;;25.30;44.50;;;;;;4984704;28;20112;-62
2021/10/08 10:30:57;;;;;;;4.05;2.85;;;25.30;44.50;;;;;;4993336;28;20096;-58
2021/10/08 10:33:27;;;;;;;8.88;2.72;;;25.40;44.50;;;;;;4994089;28;20072;-58
2021/10/08 10:36:02;;;;;;;6.82;2.83;;;25.40;44.40;;;;;;4990725;28;20053;-59
2021/10/08 10:39:18;;;;;;;5.80;3.10;;;25.40;44.40;;;;;;4983949;28;20136;-62
2021/10/08 10:42:13;;;;;;;6.97;3.00;;;25.40;44.30;;;;;;4989390;28;20034;-58
2021/10/08 10:45:11;;;;;;;12.88;2.80;;;25.50;44.30;;;;;;4993172;28;20050;-58
2021/10/08 10:47:40;;;;;;;10.05;2.90;;;25.60;44.30;;;;;;4985718;28;20054;-58
2021/10/08 10:50:20;;;;;;;7.28;2.60;;;25.60;44.20;;;;;;4991700;28;20275;-58
2021/10/08 10:53:07;;;;;;;5.82;2.75;;;25.60;44.00;;;;;;4988897;28;20124;-59
2021/10/08 10:59:31;;;;;;;4.25;2.65;;;25.60;43.80;;;;;;4996805;28;20451;-61
2021/10/08 11:02:22;;;;;;;8.27;2.45;;;25.60;43.70;;;;;;4997067;28;20133;-59
2021/10/08 11:05:12;;;;;;;6.80;2.40;;;25.60;43.60;;;;;;4995733;28;20050;-62
2021/10/08 11:08:03;;;;;;;5.97;2.85;;;25.70;43.70;;;;;;4994291;28;20455;-58
2021/10/08 11:10:31;;;;;;;10.52;2.60;;;25.70;43.40;;;;;;5000512;28;20046;-59
2021/10/08 11:13:32;;;;;;;9.65;2.97;;;25.70;43.40;;;;;;5001102;28;20077;-59
2021/10/08 11:19:39;;;;;;;7.20;2.70;;;25.70;43.30;;;;;;4998938;28;20042;-61
2021/10/08 11:22:07;;;;;;;6.68;3.05;;;25.80;43.40;;;;;;4999140;28;20185;-58
2021/10/08 11:25:03;;;;;;;7.38;2.88;;;25.80;43.80;;;;;;4998132;28;20053;-61
2021/10/08 11:27:30;;;;;;;3.85;2.60;;;25.80;43.00;;;;;;4988584;28;20053;-58
2021/10/08 11:30:03;;;;;;;11.65;3.25;;;25.90;43.10;;;;;;5000648;28;20579;-59
2021/10/08 11:32:33;;;;;;;3.55;2.33;;;25.80;42.90;;;;;;5002088;28;20064;-59
2021/10/08 11:35:01;;;;;;;5.88;2.45;;;25.90;42.80;;;;;;5000141;28;20048;-58
2021/10/08 11:37:39;;;;;;;3.97;2.33;;;25.90;42.70;;;;;;4993944;28;20050;-62
2021/10/08 11:40:09;;;;;;;3.53;2.60;;;26.00;42.70;;;;;;5005186;28;20038;-63
2021/10/08 11:42:51;;;;;;;4.22;2.42;;;26.00;42.70;;;;;;5002294;28;20042;-61
2021/10/08 11:46:14;;;;;;;5.05;2.22;;;26.00;42.70;;;;;;5004195;28;20102;-59
2021/10/08 11:48:59;;;;;;;3.22;2.30;;;26.00;42.60;;;;;;4997722;28;20056;-61
2021/10/08 11:51:27;;;;;;;5.18;2.83;;;26.00;42.60;;;;;;5004136;28;20073;-59
2021/10/08 11:53:57;;;;;;;3.10;2.17;;;26.00;42.40;;;;;;5006760;28;20128;-63
2021/10/08 11:59:57;;;;;;;6.05;2.30;;;26.10;42.30;;;;;;4997781;28;20061;-58
2021/10/08 12:02:24;;;;;;;3.72;2.53;;;26.00;42.30;;;;;;5002660;28;20054;-63
2021/10/08 12:04:59;;;;;;;3.50;2.60;;;26.10;42.30;;;;;;5000766;28;20046;-63
2021/10/08 12:07:38;;;;;;;5.03;3.00;;;26.10;41.90;;;;;;4999914;28;20061;-62
2021/10/08 12:10:13;;;;;;;4.03;2.85;;;26.10;41.70;;;;;;5009765;28;20073;-62
2021/10/08 12:12:53;;;;;;;2.90;2.47;;;26.00;41.60;;;;;;5008323;28;20133;-62
2021/10/08 12:15:21;;;;;;;5.10;2.60;;;26.00;41.70;;;;;;5003926;28;20125;-59
2021/10/08 12:17:54;;;;;;;3.97;2.55;;;26.00;41.80;;;;;;5002300;28;20529;-62
2021/10/08 12:20:29;;;;;;;3.17;2.35;;;26.00;42.10;;;;;;5005344;28;20081;-59
2021/10/08 12:23:22;;;;;;;5.88;2.92;;;26.00;42.20;;;;;;5009326;28;20081;-60
2021/10/08 12:26:21;;;;;;;2.33;2.10;;;26.00;42.40;;;;;;5008494;28;20148;-59
2021/10/08 12:29:07;;;;;;;4.93;2.78;;;26.00;42.40;;;;;;4998883;28;20049;-60
2021/10/08 12:31:57;;;;;;;3.47;2.50;;;26.00;42.40;;;;;;4998857;28;20041;-59
2021/10/08 12:34:52;;;;;;;5.63;2.63;;;25.90;42.40;;;;;;4996288;28;20083;-59
2021/10/08 12:37:26;;;;;;;2.85;2.35;;;25.90;42.60;;;;;;4995924;28;20046;-63
2021/10/08 12:40:13;;;;;;;2.85;2.38;;;25.90;42.60;;;;;;5010090;28;20144;-63
2021/10/08 12:43:03;;;;;;;3.05;2.75;;;25.90;42.60;;;;;;5007637;28;20112;-62
2021/10/08 12:45:41;;;;;;;6.32;2.42;;;25.90;43.50;;;;;;5006974;28;20041;-62
2021/10/08 12:48:16;;;;;;;3.95;2.60;;;25.80;43.80;;;;;;5010157;28;20049;-62
2021/10/08 12:50:43;;;;;;;2.72;2.40;;;25.80;44.00;;;;;;5005211;28;20137;-60
2021/10/08 12:53:23;;;;;;;4.72;2.50;;;25.80;43.90;;;;;;5010124;28;20046;-62
2021/10/08 12:55:51;;;;;;;;;;;25.80;43.60;;;;;;5008876;28;20760;-63
2021/10/08 12:58:24;;;;;;;5.35;2.85;;;25.80;43.40;;;;;;5006297;28;19922;-63
2021/10/08 13:00:57;;;;;;;5.32;2.63;;;25.80;43.90;;;;;;5014383;28;20107;-59
2021/10/08 13:03:44;;;;;;;2.88;2.25;;;25.80;44.10;;;;;;5003587;28;20046;-62
2021/10/08 13:06:31;;;;;;;4.47;2.20;;;25.80;44.70;;;;;;4995136;28;20135;-62
2021/10/08 13:09:05;;;;;;;5.28;2.72;;;25.70;44.80;;;;;;5003450;28;20065;-63
2021/10/08 13:11:44;;;;;;;4.43;2.58;;;25.70;44.40;;;;;;4978138;28;20427;-62
2021/10/08 13:14:25;;;;;;;17.25;2.90;;;25.70;43.90;;;;;;5002871;28;20077;-63
2021/10/08 13:16:53;;;;;;;6.28;3.38;;;25.70;43.50;;;;;;4995218;28;20487;-62
2021/10/08 13:19:35;;;;;;;6.57;2.63;;;25.70;43.40;;;;;;5008648;28;20053;-63
2021/10/08 13:22:03;;;;;;;8.88;3.00;;;25.70;43.70;;;;;;5006769;28;20459;-62
2021/10/08 13:24:31;;;;;;;12.15;3.95;;;25.70;43.00;;;;;;5007886;28;20100;-62
2021/10/08 13:26:58;;;;;;;9.25;3.10;;;25.60;42.90;;;;;;4994455;28;20268;-62
2021/10/08 13:29:27;;;;;;;13.65;2.88;;;25.60;42.80;;;;;;5008756;28;20046;-62
2021/10/08 13:31:55;;;;;;;5.78;2.63;;;25.60;42.80;;;;;;5009236;28;20125;-62
2021/10/08 13:34:23;;;;;;;6.15;3.15;;;25.50;42.80;;;;;;5007759;28;20153;-59
2021/10/08 13:37:10;;;;;;;3.92;2.30;;;25.50;42.70;;;;;;4988550;28;20053;-59
2021/10/08 13:39:40;;;;;;;5.68;2.67;;;25.50;42.80;;;;;;5006264;28;20362;-62
2021/10/08 13:42:08;;;;;;;5.70;2.60;;;25.40;42.80;;;;;;4990457;28;20140;-63
2021/10/08 13:44:37;;;;;;;4.55;2.83;;;25.40;42.70;;;;;;4987296;28;20039;-60
2021/10/08 13:47:05;;;;;;;4.20;2.85;;;25.40;42.70;;;;;;5000198;28;20173;-62
2021/10/08 13:49:32;;;;;;;7.78;2.40;;;25.40;42.70;;;;;;5009627;28;20140;-63
2021/10/08 13:52:03;;;;;;;8.65;3.00;;;25.40;42.70;;;;;;5009322;28;20073;-63
2021/10/08 13:54:31;;;;;;;4.00;2.30;;;25.40;42.80;;;;;;5006591;28;20149;-63